KELY/ELY METAR and TAF weather

Enter ICAO airport designator
Station Type Date Time Source
KELY METAR 2018/01/23 00:53 UTC NOAA

KELY 230053Z AUTO 10004KT 10SM FEW047 M04/M06 A3024 RMK AO2 SLP299 T10391056


Station Type Date Time Source
KELY Decoded METAR 2018/01/23 00:53 UTC NOAA

ELY AIRPORT (YELLAND FIELD), NV, United States (KELY) 39-18N 114-51W 1906M
Jan 22, 2018 - 07:53 PM EST / 2018.01.23 0053 UTC
Wind: from the E (100 degrees) at 5 MPH (4 KT):0
Visibility: 10 mile(s):0
Sky conditions: mostly clear
Temperature: 25.0 F (-3.9 C)
Windchill: 19 F (-7 C):1
Dew Point: 21.9 F (-5.6 C)
Relative Humidity: 87%
Pressure (altimeter): 30.24 in. Hg (1024 hPa)
ob: KELY 230053Z AUTO 10004KT 10SM FEW047 M04/M06 A3024 RMK AO2 SLP299 T10391056
cycle: 1

Station Type Date Time Source
KELY TAF 2018/01/23 01:48 UTC NOAA

TAF KELY 230045Z 2301/2324 VRB05KT P6SM VCSH SCT050
FM230400 19006KT P6SM SCT040


Example: see airport list